createdAt,value
2022-11-20T00:01:40.630Z,83.74
2022-11-20T00:04:12.507Z,85.04
2022-11-20T00:06:42.621Z,84.73
2022-11-20T00:09:15.548Z,85.00
2022-11-20T00:11:45.759Z,85.42
2022-11-20T00:14:16.717Z,85.42
2022-11-20T00:16:47.659Z,84.93
2022-11-20T00:19:18.492Z,85.28
2022-11-20T00:21:49.969Z,84.94
2022-11-20T00:24:20.266Z,84.09
2022-11-20T00:26:51.124Z,84.33
2022-11-20T00:29:21.622Z,84.33
2022-11-20T00:31:51.950Z,84.23
2022-11-20T00:34:22.143Z,84.85
2022-11-20T00:36:52.403Z,84.20
2022-11-20T00:39:23.619Z,83.78
2022-11-20T00:41:54.345Z,83.60
2022-11-20T00:44:24.621Z,82.57
2022-11-20T00:46:55.044Z,82.80
2022-11-20T00:49:25.309Z,82.80
2022-11-20T00:51:56.078Z,83.73
2022-11-20T00:54:26.282Z,83.70
2022-11-20T00:56:56.734Z,83.41
2022-11-20T00:59:27.076Z,83.72
2022-11-20T01:01:57.630Z,82.60
2022-11-20T01:04:28.227Z,82.09
2022-11-20T01:06:58.895Z,82.68
2022-11-20T01:09:30.064Z,83.32
2022-11-20T01:12:00.888Z,83.17
2022-11-20T01:14:31.413Z,82.75
2022-11-20T01:17:02.199Z,82.75
2022-11-20T01:19:33.086Z,81.91
2022-11-20T01:22:03.872Z,82.68
2022-11-20T01:24:34.350Z,82.66
2022-11-20T01:27:05.908Z,82.69
2022-11-20T01:29:36.296Z,82.37
2022-11-20T01:32:07.090Z,82.37
2022-11-20T01:34:38.249Z,83.07
2022-11-20T01:37:09.173Z,83.07
2022-11-20T01:39:39.879Z,82.63
2022-11-20T01:42:10.969Z,82.75
2022-11-20T01:44:53.105Z,82.82
2022-11-20T01:47:38.113Z,82.66
2022-11-20T01:50:22.565Z,81.91
2022-11-20T01:52:56.147Z,83.00
2022-11-20T01:55:29.713Z,81.90
2022-11-20T01:58:01.373Z,82.75
2022-11-20T02:00:33.243Z,82.75
2022-11-20T02:03:06.328Z,82.98
2022-11-20T02:06:06.392Z,82.45
2022-11-20T02:08:40.935Z,82.94
2022-11-20T02:11:11.827Z,83.42
2022-11-20T02:13:43.629Z,82.99
2022-11-20T02:16:26.551Z,83.44
2022-11-20T02:19:07.132Z,82.72
2022-11-20T02:21:49.467Z,83.79
2022-11-20T02:24:21.594Z,83.78
2022-11-20T02:27:06.300Z,84.09
2022-11-20T02:29:39.541Z,84.40
2022-11-20T02:32:27.422Z,84.40
2022-11-20T02:34:57.734Z,85.19
2022-11-20T02:37:31.003Z,84.67
2022-11-20T02:40:02.061Z,85.49
2022-11-20T02:42:32.488Z,85.49
2022-11-20T02:45:02.808Z,85.34
2022-11-20T02:47:34.436Z,86.16
2022-11-20T02:50:07.660Z,86.41
2022-11-20T02:52:38.024Z,86.53
2022-11-20T02:55:09.111Z,86.64
2022-11-20T02:57:40.088Z,84.63
2022-11-20T03:00:14.314Z,84.63
2022-11-20T03:02:44.576Z,85.50
2022-11-20T03:05:14.878Z,84.67
2022-11-20T03:07:45.927Z,84.67
2022-11-20T03:10:16.162Z,84.66
2022-11-20T03:12:48.488Z,83.84
2022-11-20T03:15:18.835Z,84.15
2022-11-20T03:17:48.914Z,83.02
2022-11-20T03:20:23.950Z,83.56
2022-11-20T03:22:55.989Z,84.66
2022-11-20T03:25:30.355Z,85.31
2022-11-20T03:28:00.666Z,84.82
2022-11-20T03:30:31.446Z,84.81
2022-11-20T03:33:02.306Z,85.41
2022-11-20T03:35:32.447Z,85.24
2022-11-20T03:38:07.145Z,85.24
2022-11-20T03:40:37.990Z,84.86
2022-11-20T03:43:11.011Z,86.91
2022-11-20T03:45:40.483Z,86.91
2022-11-20T03:48:11.106Z,86.32
2022-11-20T03:50:41.800Z,87.72
2022-11-20T03:53:11.901Z,87.24
2022-11-20T03:55:43.864Z,87.29
2022-11-20T03:58:15.939Z,87.23
2022-11-20T04:00:46.545Z,87.23
2022-11-20T04:03:17.190Z,89.45
2022-11-20T04:05:47.517Z,89.45
2022-11-20T04:08:18.145Z,88.53
2022-11-20T04:10:49.274Z,88.76
2022-11-20T04:13:19.728Z,88.92
2022-11-20T04:15:51.334Z,89.18
2022-11-20T04:18:25.214Z,89.54
2022-11-20T04:20:58.919Z,88.88
2022-11-20T04:23:38.773Z,89.36
2022-11-20T04:26:12.070Z,87.88
2022-11-20T04:28:42.532Z,86.39
2022-11-20T04:31:19.221Z,86.30
2022-11-20T04:33:50.027Z,86.87
2022-11-20T04:36:23.544Z,88.60
2022-11-20T04:38:57.324Z,88.14
2022-11-20T04:41:30.562Z,87.77
2022-11-20T04:44:02.425Z,87.77
2022-11-20T04:46:38.354Z,88.05
2022-11-20T04:49:09.550Z,88.05
2022-11-20T04:51:40.009Z,87.00
2022-11-20T04:54:12.404Z,87.00
2022-11-20T04:56:42.821Z,86.62
2022-11-20T04:59:13.177Z,85.73
2022-11-20T05:01:43.640Z,87.25
2022-11-20T05:04:14.679Z,87.25
2022-11-20T05:06:49.002Z,85.41
2022-11-20T05:09:19.629Z,85.86
2022-11-20T05:11:51.756Z,85.79
2022-11-20T05:14:22.183Z,86.28
2022-11-20T05:16:52.579Z,85.28
2022-11-20T05:19:23.120Z,85.72
2022-11-20T05:21:53.738Z,86.19
2022-11-20T05:24:24.044Z,86.20
2022-11-20T05:26:57.960Z,86.10
2022-11-20T05:29:28.183Z,86.42
2022-11-20T05:31:58.351Z,86.42
2022-11-20T05:34:28.774Z,87.09
2022-11-20T05:36:59.126Z,87.09
2022-11-20T05:39:32.447Z,88.09
2022-11-20T05:42:04.784Z,88.00
2022-11-20T05:44:34.943Z,88.39
2022-11-20T05:47:32.814Z,88.14
2022-11-20T05:49:50.349Z,88.80
2022-11-20T05:52:21.409Z,88.55
2022-11-20T05:54:52.049Z,88.90
2022-11-20T05:57:22.614Z,88.53
2022-11-20T05:59:53.211Z,89.03
2022-11-20T06:02:23.439Z,88.28
2022-11-20T06:04:53.942Z,88.77
2022-11-20T06:07:25.108Z,87.91
2022-11-20T06:10:00.042Z,89.00
2022-11-20T06:12:31.729Z,89.00
2022-11-20T06:15:04.191Z,89.05
2022-11-20T06:17:43.557Z,90.48
2022-11-20T06:20:14.323Z,90.48
2022-11-20T06:23:03.934Z,89.41
2022-11-20T06:25:51.999Z,89.20
2022-11-20T06:28:22.905Z,89.29
2022-11-20T06:33:43.477Z,89.58
2022-11-20T06:36:16.364Z,89.97
2022-11-20T06:38:47.258Z,89.97
2022-11-20T06:41:19.913Z,89.45
2022-11-20T06:43:52.029Z,89.97
2022-11-20T06:46:22.748Z,90.32
2022-11-20T06:48:53.203Z,90.58
2022-11-20T06:51:24.846Z,90.19
2022-11-20T06:53:55.146Z,90.68
2022-11-20T06:56:25.566Z,90.67
2022-11-20T06:58:57.224Z,91.69
2022-11-20T07:01:28.887Z,91.85
2022-11-20T07:03:59.310Z,92.23
2022-11-20T07:06:29.715Z,92.14
2022-11-20T07:09:00.238Z,92.14
2022-11-20T07:11:31.047Z,92.35
2022-11-20T07:14:02.005Z,92.56
2022-11-20T07:16:35.004Z,92.61
2022-11-20T07:19:08.506Z,92.38
2022-11-20T07:21:38.708Z,92.85
2022-11-20T07:24:12.766Z,93.37
2022-11-20T07:26:43.072Z,93.28
2022-11-20T07:29:15.598Z,93.28
2022-11-20T07:31:46.044Z,93.35
2022-11-20T07:34:18.325Z,94.43
2022-11-20T07:36:50.815Z,94.38
2022-11-20T07:39:21.572Z,94.55
2022-11-20T07:41:56.616Z,94.55
2022-11-20T07:44:40.455Z,94.73
2022-11-20T07:47:28.494Z,94.13
2022-11-20T07:50:00.991Z,94.59
2022-11-20T08:02:55.962Z,94.71
2022-11-20T08:06:06.936Z,94.81
2022-11-20T08:25:25.545Z,93.98
2022-11-20T08:28:12.972Z,92.93
2022-11-20T08:30:38.287Z,92.37
2022-11-20T08:33:14.167Z,92.47
2022-11-20T08:38:53.434Z,92.70
2022-11-20T08:41:26.272Z,92.48
2022-11-20T08:44:04.638Z,92.32
2022-11-20T08:46:38.238Z,92.04
2022-11-20T08:49:15.815Z,92.53
2022-11-20T08:51:45.990Z,92.74
2022-11-20T08:57:32.148Z,93.48
2022-11-20T09:00:07.479Z,93.48
2022-11-20T09:09:07.291Z,94.25
2022-11-20T09:12:33.261Z,94.97
2022-11-20T09:17:33.483Z,95.25
2022-11-20T09:20:06.607Z,95.57
2022-11-20T09:25:41.644Z,96.10
2022-11-20T09:28:25.162Z,96.10
2022-11-20T09:31:18.344Z,95.55
2022-11-20T09:34:12.431Z,96.12
2022-11-20T09:40:25.443Z,95.96
2022-11-20T09:46:14.516Z,96.61
2022-11-20T09:55:15.538Z,96.93
2022-11-20T09:58:03.133Z,96.30
2022-11-20T10:00:47.766Z,96.30
2022-11-20T10:03:36.620Z,96.54
2022-11-20T10:06:03.618Z,97.21
2022-11-20T10:08:58.922Z,97.21
2022-11-20T10:11:54.799Z,97.60
2022-11-20T10:15:00.336Z,97.93
2022-11-20T10:17:53.595Z,98.04
2022-11-20T10:21:00.682Z,98.33
2022-11-20T10:23:34.048Z,98.82
2022-11-20T10:26:22.621Z,98.82
2022-11-20T10:29:12.799Z,98.00
2022-11-20T10:31:57.750Z,97.78
2022-11-20T10:34:36.916Z,97.84
2022-11-20T10:37:15.305Z,98.33
2022-11-20T10:40:23.149Z,98.25
2022-11-20T10:43:02.046Z,98.15
2022-11-20T10:45:41.282Z,97.54
2022-11-20T10:49:16.089Z,97.78
2022-11-20T10:52:08.474Z,97.78
2022-11-20T10:54:48.751Z,97.85
2022-11-20T10:57:46.933Z,98.03
2022-11-20T11:00:17.447Z,99.12
2022-11-20T11:02:55.441Z,99.12
2022-11-20T11:08:50.858Z,99.87
2022-11-20T11:11:30.297Z,99.87
2022-11-20T11:16:59.008Z,99.79
2022-11-20T11:19:29.579Z,99.79
2022-11-20T11:22:00.524Z,99.93
2022-11-20T11:24:42.132Z,99.79
2022-11-20T11:27:07.007Z,99.84
2022-11-20T11:29:37.995Z,99.84
2022-11-20T11:32:14.469Z,100.00
2022-11-20T11:35:02.042Z,100.00
2022-11-20T11:37:39.732Z,100.00
2022-11-20T11:40:27.779Z,100.00
2022-11-20T11:42:47.654Z,100.00
2022-11-20T11:45:18.750Z,100.00
2022-11-20T11:47:54.453Z,100.00
2022-11-20T11:50:29.111Z,100.00
2022-11-20T11:53:17.693Z,100.00
2022-11-20T11:56:26.788Z,100.00
2022-11-20T11:59:00.702Z,100.00
2022-11-20T12:02:15.331Z,100.00
2022-11-20T12:04:50.239Z,100.00
2022-11-20T12:07:46.019Z,100.00
2022-11-20T12:10:10.072Z,100.00
2022-11-20T12:12:44.676Z,100.00
2022-11-20T12:15:26.116Z,100.00
2022-11-20T12:17:59.425Z,100.00
2022-11-20T12:20:38.626Z,100.00
2022-11-20T12:23:30.814Z,100.00
2022-11-20T12:26:04.110Z,100.00
2022-11-20T12:28:41.270Z,100.00
2022-11-20T12:31:14.411Z,100.00
2022-11-20T12:37:00.669Z,100.00
2022-11-20T12:39:53.666Z,100.00
2022-11-20T12:42:32.763Z,100.00
2022-11-20T12:45:22.402Z,100.00
2022-11-20T12:48:07.397Z,100.00
2022-11-20T12:51:16.135Z,100.00
2022-11-20T12:57:14.813Z,100.00
2022-11-20T13:03:09.211Z,100.00
2022-11-20T13:06:02.210Z,100.00
2022-11-20T13:08:37.690Z,100.00
2022-11-20T13:11:20.221Z,100.00
2022-11-20T13:13:59.352Z,100.00
2022-11-20T13:16:49.788Z,100.00
2022-11-20T13:19:21.804Z,100.00
2022-11-20T13:22:01.258Z,100.00
2022-11-20T13:24:33.813Z,100.00
2022-11-20T13:27:11.650Z,100.00
2022-11-20T13:29:44.786Z,100.00
2022-11-20T13:32:56.952Z,100.00
2022-11-20T13:35:07.553Z,100.00
2022-11-20T13:38:14.554Z,100.00
2022-11-20T13:41:04.480Z,100.00
2022-11-20T13:44:05.242Z,100.00
2022-11-20T13:46:46.622Z,100.00
2022-11-20T13:49:34.773Z,100.00
2022-11-20T13:52:34.674Z,100.00
2022-11-20T13:55:28.547Z,100.00
2022-11-20T13:58:29.044Z,100.00
2022-11-20T14:01:03.786Z,100.00
2022-11-20T14:06:49.013Z,100.00
2022-11-20T14:09:35.251Z,100.00
2022-11-20T14:12:33.897Z,100.00
2022-11-20T14:15:16.059Z,100.00
2022-11-20T14:21:10.626Z,100.00
2022-11-20T14:28:59.529Z,100.00
2022-11-20T14:31:34.834Z,100.00
2022-11-20T14:34:04.944Z,100.00
2022-11-20T14:36:35.830Z,100.00
2022-11-20T14:39:14.594Z,100.00
2022-11-20T14:41:53.161Z,100.00
2022-11-20T14:44:26.811Z,100.00
2022-11-20T14:46:57.971Z,100.00
2022-11-20T14:49:33.078Z,100.00
2022-11-20T14:52:19.014Z,100.00
2022-11-20T14:55:02.633Z,100.00
2022-11-20T14:57:35.900Z,100.00
2022-11-20T15:00:20.508Z,100.00
2022-11-20T15:02:54.691Z,100.00
2022-11-20T15:05:47.327Z,100.00
2022-11-20T15:08:19.826Z,100.00
2022-11-20T15:11:05.155Z,100.00
2022-11-20T15:13:52.309Z,100.00
2022-11-20T15:40:15.660Z,100.00
2022-11-20T15:43:13.585Z,100.00
2022-11-20T15:49:18.368Z,100.00
2022-11-20T15:51:50.579Z,100.00
2022-11-20T15:57:26.675Z,100.00
2022-11-20T15:59:57.121Z,100.00
2022-11-20T16:02:28.836Z,100.00
2022-11-20T16:05:24.150Z,100.00
2022-11-20T16:17:29.720Z,100.00
2022-11-20T16:20:00.084Z,100.00
2022-11-20T16:22:33.228Z,100.00
2022-11-20T16:25:07.572Z,100.00
2022-11-20T16:27:42.446Z,100.00
2022-11-20T16:30:25.398Z,100.00
2022-11-20T16:39:24.210Z,100.00
2022-11-20T16:42:01.103Z,100.00
2022-11-20T16:54:46.556Z,100.00
2022-11-20T16:58:10.568Z,100.00
2022-11-20T17:00:48.361Z,100.00
2022-11-20T17:03:40.120Z,100.00
2022-11-20T17:06:19.345Z,100.00
2022-11-20T17:08:50.666Z,100.00
2022-11-20T17:11:21.245Z,100.00
2022-11-20T17:13:52.044Z,100.00
2022-11-20T17:16:27.705Z,100.00
2022-11-20T17:19:04.582Z,100.00
2022-11-20T17:21:40.998Z,100.00
2022-11-20T17:35:23.622Z,100.00
2022-11-20T17:37:49.387Z,100.00
2022-11-20T17:43:34.363Z,100.00
2022-11-20T17:46:19.470Z,100.00
2022-11-20T17:48:51.100Z,100.00
2022-11-20T17:51:28.877Z,100.00
2022-11-20T17:54:10.942Z,100.00
2022-11-20T17:56:41.283Z,100.00
2022-11-20T17:59:20.118Z,100.00
2022-11-20T18:02:03.634Z,100.00
2022-11-20T18:07:40.143Z,100.00
2022-11-20T18:10:12.443Z,100.00
2022-11-20T18:12:42.767Z,100.00
2022-11-20T18:15:13.778Z,100.00
2022-11-20T18:17:44.791Z,100.00
2022-11-20T18:20:29.363Z,100.00
2022-11-20T18:23:04.915Z,100.00
2022-11-20T18:25:41.132Z,100.00
2022-11-20T18:28:14.345Z,100.00
2022-11-20T18:30:45.254Z,100.00
2022-11-20T18:33:15.417Z,100.00
2022-11-20T18:35:46.292Z,100.00
2022-11-20T18:38:16.807Z,100.00
2022-11-20T18:40:51.723Z,100.00
2022-11-20T18:43:24.511Z,100.00
2022-11-20T18:46:06.605Z,100.00
2022-11-20T18:48:39.815Z,100.00
2022-11-20T18:51:37.980Z,100.00
2022-11-20T18:53:58.538Z,100.00
2022-11-20T18:56:34.015Z,100.00
2022-11-20T18:59:08.037Z,100.00
2022-11-20T19:01:38.634Z,100.00
2022-11-20T19:04:11.215Z,100.00
2022-11-20T19:06:44.913Z,100.00
2022-11-20T19:09:15.224Z,100.00
2022-11-20T19:11:46.171Z,100.00
2022-11-20T19:14:24.224Z,100.00
2022-11-20T19:17:54.736Z,100.00
2022-11-20T19:20:26.322Z,100.00
2022-11-20T19:23:04.969Z,100.00
2022-11-20T19:25:42.983Z,100.00
2022-11-20T19:28:16.662Z,100.00
2022-11-20T19:30:48.767Z,100.00
2022-11-20T19:33:20.540Z,100.00
2022-11-20T19:35:54.236Z,100.00
2022-11-20T19:38:25.442Z,100.00
2022-11-20T19:40:58.541Z,100.00
2022-11-20T19:43:28.881Z,100.00
2022-11-20T19:45:59.801Z,100.00
2022-11-20T19:48:40.213Z,100.00
2022-11-20T19:51:16.589Z,100.00
2022-11-20T19:53:48.941Z,100.00
2022-11-20T19:56:19.955Z,100.00
2022-11-20T19:58:50.164Z,100.00
2022-11-20T20:01:23.840Z,100.00
2022-11-20T20:03:56.888Z,100.00
2022-11-20T20:06:28.944Z,100.00
2022-11-20T20:09:04.347Z,100.00
2022-11-20T20:11:45.097Z,100.00
2022-11-20T20:14:17.399Z,100.00
2022-11-20T20:16:48.767Z,100.00
2022-11-20T20:19:24.910Z,100.00
2022-11-20T20:25:43.917Z,100.00
2022-11-20T20:28:16.940Z,100.00
2022-11-20T21:01:12.717Z,100.00
2022-11-20T21:23:47.354Z,100.00
2022-11-20T21:26:18.225Z,100.00
2022-11-20T21:28:49.166Z,100.00
2022-11-20T21:31:24.504Z,100.00
2022-11-20T21:34:04.651Z,100.00
2022-11-20T21:36:39.269Z,100.00
2022-11-20T21:39:12.177Z,100.00
2022-11-20T21:41:59.774Z,100.00
2022-11-20T21:44:33.393Z,100.00
2022-11-20T21:47:03.564Z,100.00
2022-11-20T21:49:48.458Z,100.00
2022-11-20T21:55:02.225Z,100.00
2022-11-20T21:57:37.059Z,100.00
2022-11-20T22:00:12.761Z,100.00
2022-11-20T22:03:09.369Z,100.00
2022-11-20T22:06:12.672Z,100.00
2022-11-20T22:08:49.068Z,100.00
2022-11-20T22:11:22.914Z,100.00
2022-11-20T22:13:55.119Z,100.00
2022-11-20T22:19:43.220Z,100.00
2022-11-20T22:22:18.053Z,100.00
2022-11-20T22:24:48.507Z,100.00
2022-11-20T22:27:19.338Z,100.00
2022-11-20T22:29:52.810Z,100.00
2022-11-20T22:32:23.108Z,100.00
2022-11-20T22:34:53.327Z,100.00
2022-11-20T22:37:23.862Z,100.00
2022-11-20T22:39:53.967Z,100.00
2022-11-20T22:42:36.411Z,100.00
2022-11-20T22:45:27.706Z,100.00
2022-11-20T22:48:12.176Z,100.00
2022-11-20T22:51:15.271Z,100.00
2022-11-20T22:53:50.101Z,100.00
2022-11-20T22:56:21.073Z,100.00
2022-11-20T22:58:56.638Z,100.00
2022-11-20T23:01:31.797Z,100.00
2022-11-20T23:04:08.989Z,100.00
2022-11-20T23:06:39.362Z,100.00
2022-11-20T23:09:09.767Z,100.00
2022-11-20T23:11:40.259Z,100.00
2022-11-20T23:14:13.986Z,100.00
2022-11-20T23:16:44.997Z,100.00
2022-11-20T23:19:15.966Z,100.00
2022-11-20T23:21:47.006Z,100.00
2022-11-20T23:24:17.615Z,100.00
2022-11-20T23:26:47.820Z,100.00
2022-11-20T23:29:18.312Z,100.00
2022-11-20T23:31:48.663Z,100.00
2022-11-20T23:34:19.048Z,100.00
2022-11-20T23:36:49.596Z,100.00
2022-11-20T23:39:20.042Z,100.00
2022-11-20T23:41:51.976Z,100.00
2022-11-20T23:44:22.126Z,100.00
2022-11-20T23:46:52.256Z,100.00
2022-11-20T23:49:22.404Z,100.00
2022-11-20T23:51:52.732Z,100.00
2022-11-20T23:54:22.876Z,100.00
2022-11-20T23:56:53.177Z,100.00
2022-11-20T23:59:23.772Z,100.00
